VE3CVG Weather Reports


Display with metric or nautical units.
time (UTC)temp
F
wind
direction
speed
MPH
gust
MPH
rain 1hr
in
rain 24hr
in
rain mn
in
humidity
%
barometer
mb
20210922081016 64 206 3.0 5.0 0.00 0.00 0.00 99 1018.2
20210922075529 64 170 4.0 6.0 0.00 0.00 0.00 99 1018.2
20210922074026 64 177 4.0 5.0 0.00 0.00 0.00 99 1018.3
20210922072521 65 189 2.0 3.0 0.00 0.00 0.00 99 1018.5
20210922071018 65 157 3.0 4.0 0.00 0.00 0.00 98 1018.5
20210922065531 65 189 3.0 4.0 0.00 0.00 0.00 97 1018.7
20210922064027 65 187 3.0 5.0 0.00 0.00 0.00 96 1018.7
20210922062523 66 171 4.0 6.0 0.00 0.00 0.00 96 1018.9
20210922061018 66 167 5.0 6.0 0.00 0.00 0.00 96 1019.0
20210922055532 66 181 4.0 6.0 0.00 0.00 0.00 95 1019.0
20210922054029 66 175 5.0 8.0 0.00 0.00 0.00 95 1019.1
20210922052524 66 175 5.0 7.0 0.00 0.00 0.00 94 1019.2
20210922051020 66 195 6.0 9.0 0.00 0.00 0.00 94 1019.5
20210922045516 66 167 5.0 7.0 0.00 0.00 0.00 94 1019.5
20210922044029 66 204 6.0 9.0 0.00 0.00 0.00 94 1019.8
20210922042525 66 172 5.0 7.0 0.00 0.00 0.00 94 1020.0
20210922041021 66 170 5.0 9.0 0.00 0.00 0.00 93 1020.1
20210922035516 66 174 6.0 8.0 0.00 0.00 0.00 93 1020.1
20210922034031 66 175 6.0 8.0 0.00 0.00 0.00 93 1020.3
20210922032526 66 169 6.0 9.0 0.00 0.00 0.00 93 1020.5
20210922031022 66 175 5.0 7.0 0.00 0.00 0.00 93 1020.6
20210922025518 65 176 6.0 7.0 0.00 0.00 0.00 93 1020.5
20210922024031 65 162 4.0 7.0 0.00 0.00 0.00 93 1020.6
20210922022528 65 148 4.0 6.0 0.00 0.00 0.00 93 1020.7
20210922021023 65 164 5.0 7.0 0.00 0.00 0.00 92 1020.7
20210922015519 65 171 5.0 8.0 0.00 0.00 0.00 92 1020.7
20210922014021 65 171 5.0 6.0 0.00 0.00 0.00 93 1020.8
20210922012517 65 165 4.0 6.0 0.00 0.00 0.00 93 1020.9
20210922011025 65 163 4.0 6.0 0.00 0.00 0.00 93 1020.9
20210922005520 65 166 4.0 6.0 0.00 0.00 0.00 93 1021.0
20210922004016 64 166 4.0 6.0 0.00 0.00 0.00 94 1021.0
20210922002531 63 156 3.0 6.0 0.00 0.00 0.00 96 1021.2
20210922001026 62 139 2.0 3.0 0.00 0.00 0.00 99 1021.3
20210921235522 62 0.0 0.0 0.00 0.00 0.00 98 1021.3
20210921234018 63 0.0 0.0 0.00 0.00 0.00 96 1021.4
20210921232532 65 0.0 0.0 0.00 0.00 0.00 93 1021.6
20210921231027 67 0.0 0.0 0.00 0.00 0.00 89 1021.5
20210921225523 68 171 2.0 4.0 0.00 0.00 0.00 88 1021.6
20210921224019 68 184 3.0 6.0 0.00 0.00 0.00 85 1021.6
20210921222527 69 174 3.0 5.0 0.00 0.00 0.00 86 1021.6
20210921221022 70 181 3.0 4.0 0.00 0.00 0.00 83 1021.7
20210921215519 70 169 4.0 7.0 0.00 0.00 0.00 81 1021.7
20210921214020 70 132 4.0 6.0 0.00 0.00 0.00 81 1021.7
20210921212517 71 200 6.0 9.0 0.00 0.00 0.00 81 1021.7
20210921211030 70 179 5.0 8.0 0.00 0.00 0.00 82 1021.9
20210921205526 71 190 6.0 8.0 0.00 0.00 0.00 80 1021.7
20210921204022 71 183 5.0 7.0 0.00 0.00 0.00 79 1021.8
20210921202518 71 176 4.0 6.0 0.00 0.00 0.00 80 1021.9
20210921201031 71 185 4.0 6.0 0.00 0.00 0.00 81 1022.0
20210921195528 71 212 4.0 6.0 0.00 0.00 0.00 80 1021.9
20210921194023 71 191 4.0 6.0 0.00 0.00 0.00 79 1021.9
20210921192519 72 219 5.0 7.0 0.00 0.00 0.00 78 1022.0
20210921191034 72 201 4.0 6.0 0.00 0.00 0.00 79 1022.2
20210921185528 71 198 4.0 5.0 0.00 0.00 0.00 79 1022.2
20210921184025 72 192 5.0 8.0 0.00 0.00 0.00 78 1022.6
20210921182520 72 206 5.0 8.0 0.00 0.00 0.00 77 1022.7
20210921181017 73 223 6.0 9.0 0.00 0.00 0.00 75 1022.6
20210921175530 72 205 5.0 7.0 0.00 0.00 0.00 76 1022.7
20210921174025 72 188 6.0 8.0 0.00 0.00 0.00 77 1022.6
20210921172522 72 214 6.0 11.0 0.00 0.00 0.00 75 1022.6
20210921171018 72 209 7.0 10.0 0.00 0.00 0.00 76 1022.5
20210921165531 71 183 7.0 10.0 0.00 0.00 0.00 78 1022.6
20210921164027 71 191 7.0 11.0 0.00 0.00 0.00 77 1022.7
20210921162522 73 188 9.0 12.0 0.00 0.00 0.00 74 1022.9
20210921161018 71 190 8.0 12.0 0.00 0.00 0.00 77 1022.9
20210921155533 72 191 9.0 16.0 0.00 0.00 0.00 76 1023.0
20210921154028 70 190 10.0 13.0 0.00 0.00 0.00 77 1023.2
20210921152524 69 195 8.0 12.0 0.00 0.00 0.00 80 1023.4
20210921151019 69 176 9.0 12.0 0.00 0.00 0.00 79 1023.3
20210921145516 67 194 8.0 11.0 0.00 0.00 0.00 83 1023.3
20210921144017 67 200 8.0 11.0 0.00 0.00 0.00 83 1023.4
20210921142525 68 187 11.0 15.0 0.00 0.00 0.00 80 1023.5
20210921141021 68 11.0 11.0 0.00 0.00 0.00 81 1023.6
20210921135516 67 177 10.0 16.0 0.00 0.00 0.00 82 1023.5
20210921134031 65 172 8.0 12.0 0.00 0.00 0.00 86 1023.6
20210921132526 65 173 8.0 15.0 0.00 0.00 0.00 87 1023.7
20210921131022 65 161 9.0 13.0 0.00 0.00 0.00 87 1023.6
20210921125518 64 178 9.0 13.0 0.00 0.00 0.00 88 1023.7
20210921124032 62 160 7.0 10.0 0.00 0.00 0.00 93 1023.7
20210921122527 62 170 7.0 11.0 0.00 0.00 0.00 94 1023.8
20210921121024 62 177 7.0 9.0 0.00 0.00 0.00 95 1023.8
20210921115519 62 184 7.0 9.0 0.00 0.00 0.00 95 1023.8
20210921114027 62 178 7.0 10.0 0.00 0.00 0.00 95 1023.7
20210921112523 62 174 7.0 10.0 0.00 0.00 0.00 96 1023.7
20210921111018 61 190 6.0 9.0 0.00 0.00 0.00 97 1023.7
20210921105520 0 203 5.0 5.0 0.00 0.00 0.00 1023.6
20210921104016 61 178 6.0 9.0 0.00 0.00 0.00 97 1023.6
20210921102530 61 185 7.0 8.0 0.00 0.00 0.00 97 1023.5
20210921101026 62 181 6.0 8.0 0.00 0.00 0.00 96 1023.3
20210921095522 62 170 6.0 7.0 0.00 0.00 0.00 96 1023.3
20210921094018 62 177 6.0 10.0 0.00 0.00 0.00 97 1023.5
20210921092531 61 191 6.0 9.0 0.00 0.00 0.00 97 1023.5
20210921091027 61 185 5.0 8.0 0.00 0.00 0.00 97 1023.5
20210921085523 61 173 5.0 6.0 0.00 0.00 0.00 97 1023.5
20210921084018 61 177 5.0 8.0 0.00 0.00 0.00 97 1023.5
20210921082532 61 170 4.0 7.0 0.00 0.00 0.00 97 1023.5